Flight Track Log - Related Links

Times and Time Zones

All times are in EDT time to prevent confusion due to time zone crossing. See the UPS9321 flight status page for this flight to view local times or setup timezone preferences in your user account.

Time Position Orientation Groundspeed Altitude Reporting Facility
EDT Latitude Longitude Course Direction KTS MPH feet Rate Location/Type
Fri 11:00:45 PM 39.8633 -75.2626 254° West 149 171 1,100  Level FlightAware ADS-B
Fri 11:00:48 PM 39.8627 -75.2653 248° West 149 171 1,300 3,750 Climbing FlightAware ADS-B
Fri 11:00:53 PM 39.8616 -75.2688 245° Southwest 152 175 1,600 3,500 Climbing FlightAware ADS-B
Fri 11:01:00 PM 39.8592 -75.2755 242° Southwest 154 177 2,000 2,571 Climbing FlightAware ADS-B
Fri 11:01:07 PM 39.8571 -75.2807 242° Southwest 158 182 2,200 1,364 Climbing FlightAware ADS-B
Fri 11:01:22 PM 39.8513 -75.2952 242° Southwest 184 212 2,500 2,000 Climbing FlightAware ADS-B
Fri 11:01:37 PM 39.8448 -75.3110 242° Southwest 193 222 3,200 2,710 Climbing FlightAware ADS-B
Fri 11:01:53 PM 39.8378 -75.3281 242° Southwest 208 239 3,900 3,000 Climbing FlightAware ADS-B
Fri 11:02:09 PM 39.8306 -75.3461 243° Southwest 215 247 4,800 3,724 Climbing FlightAware ADS-B
Fri 11:02:22 PM 39.8245 -75.3619 241° Southwest 208 239 5,700 4,235 Climbing FlightAware ADS-B
Fri 11:02:26 PM 39.8227 -75.3661 238° Southwest 204 235 6,000 4,500 Climbing FlightAware ADS-B
Fri 11:02:30 PM 39.8206 -75.3705 232° Southwest 204 235 6,300 3,750 Climbing FlightAware ADS-B
Fri 11:02:34 PM 39.8186 -75.3738 223° Southwest 205 236 6,500 3,429 Climbing FlightAware ADS-B
Fri 11:02:37 PM 39.8160 -75.3770 216° Southwest 207 238 6,700 3,429 Climbing FlightAware ADS-B
Fri 11:02:41 PM 39.8129 -75.3799 206° Southwest 212 244 6,900 3,000 Climbing FlightAware ADS-B
Fri 11:02:45 PM 39.8096 -75.3820 205° Southwest 216 249 7,100 2,571 Climbing FlightAware ADS-B
Fri 11:02:48 PM 39.8086 -75.3826 195° South 210 242 7,200 4,500 Climbing FlightAware ADS-B
Fri 11:02:49 PM 39.8052 -75.3838 188° South 221 254 7,400 4,800 Climbing FlightAware ADS-B
Fri 11:02:53 PM 39.8015 -75.3845 178° South 226 260 7,600 3,750 Climbing FlightAware ADS-B
Fri 11:02:57 PM 39.7963 -75.3843 168° South 231 266 7,900 4,286 Climbing FlightAware ADS-B
Fri 11:03:00 PM 39.7930 -75.3834 162° South 235 270 8,100 3,000 Climbing FlightAware ADS-B
Fri 11:03:05 PM 39.7885 -75.3815 154° Southeast 242 278 8,300 2,250 Climbing FlightAware ADS-B
Fri 11:03:08 PM 39.7852 -75.3794 148° Southeast 247 284 8,400 3,000 Climbing FlightAware ADS-B
Fri 11:03:11 PM 39.7821 -75.3769 141° Southeast 250 288 8,600 4,000 Climbing FlightAware ADS-B
Fri 11:03:14 PM 39.7793 -75.3740 135° Southeast 254 292 8,800 3,600 Climbing FlightAware ADS-B
Fri 11:03:16 PM 39.7776 -75.3718 132° Southeast 256 295 8,900 3,000 Climbing FlightAware ADS-B
Fri 11:03:18 PM 39.7763 -75.3699 128° Southeast 256 295 9,000 2,400 Climbing FlightAware ADS-B
Fri 11:03:21 PM 39.7738 -75.3658 120° Southeast 259 298 9,100 3,000 Climbing FlightAware ADS-B
Fri 11:03:24 PM 39.7718 -75.3613 114° Southeast 261 300 9,300 3,429 Climbing FlightAware ADS-B
Fri 11:03:28 PM 39.7700 -75.3561 107° East 263 303 9,500 4,286 Climbing FlightAware ADS-B
Fri 11:03:31 PM 39.7686 -75.3501 360° North 262 302 9,800 4,500 Climbing FlightAware ADS-B
Fri 11:03:32 PM 39.7686 -75.3501 100° East 263 303 9,800 3,000 Level FlightAware ADS-B
Fri 11:03:37 PM 39.7675 -75.3418 94° East 262 302 10,100 3,273 Climbing FlightAware ADS-B
Fri 11:03:43 PM 39.7670 -75.3329 91° East 262 302 10,400 3,176 Climbing FlightAware ADS-B
Fri 11:03:54 PM 39.7668 -75.3147 87° East 263 303 11,000 1,941 Climbing FlightAware ADS-B
Fri 11:04:17 PM 39.7675 -75.2972 86° East 266 306 11,500 1,935 Climbing FlightAware ADS-B
Fri 11:04:25 PM 39.7691 -75.2657 86° East 289 333 12,000 1,105 Climbing FlightAware ADS-B
Fri 11:04:55 PM 39.7718 -75.2094 86° East 327 376 12,200 200 Climbing FlightAware ADS-B
Fri 11:05:25 PM 39.7757 -75.1434 85° East 391 450 12,200  Level FlightAware ADS-B
Fri 11:05:32 PM 39.7761 -75.1373 86° East 395 455 12,200  Level FlightAware ADS-B
Fri 11:05:56 PM 39.7797 -75.0660 87° East 423 487 12,200  Level FlightAware ADS-B
Fri 11:06:27 PM 39.7825 -74.9880 87° East 425 489 12,200  Level FlightAware ADS-B
Fri 11:06:57 PM 39.7855 -74.9108 86° East 426 490 12,200 100 Level FlightAware ADS-B
Fri 11:07:27 PM 39.7892 -74.8324 86° East 425 489 12,300 176 Climbing FlightAware ADS-B
Fri 11:07:31 PM 39.7899 -74.8191 85° East 426 490 12,300 1,579 Level FlightAware ADS-B
Fri 11:07:46 PM 39.7921 -74.7832 77° East 430 495 12,800 2,483 Climbing FlightAware ADS-B
Fri 11:08:00 PM 39.7981 -74.7480 69° East 432 497 13,500 2,700 Climbing FlightAware ADS-B
Fri 11:08:06 PM 39.8020 -74.7349 61° Northeast 431 496 13,700 2,471 Climbing FlightAware ADS-B
Fri 11:08:17 PM 39.8133 -74.7083 239° Southwest 429 494 14,200 1,091 Climbing FlightAware ADS-B
Fri 11:08:17 PM 39.8065 -74.7228 57° Northeast 430 495 13,900 3,000 Descending FlightAware ADS-B
Fri 11:08:21 PM 39.8181 -74.6998 49° Northeast 428 493 14,400 4,667 Climbing FlightAware ADS-B
Fri 11:08:26 PM 39.8238 -74.6912 44° Northeast 427 491 14,600 3,000 Climbing FlightAware ADS-B
Fri 11:08:33 PM 39.8347 -74.6775 38° Northeast 425 489 15,000 2,684 Climbing FlightAware ADS-B
Fri 11:09:04 PM 39.8821 -74.6296 37° Northeast 431 496 16,300 2,516 Climbing FlightAware ADS-B
Fri 11:09:35 PM 39.9326 -74.5800 37° Northeast 438 504 17,600 2,419 Climbing FlightAware ADS-B
Fri 11:10:06 PM 39.9842 -74.5291 37° Northeast 445 512 18,800 2,250 Climbing FlightAware ADS-B
Fri 11:10:39 PM 40.0385 -74.4752 37° Northeast 453 521 20,000 2,095 Climbing FlightAware ADS-B
Fri 11:11:09 PM 40.0895 -74.4246 37° Northeast 459 528 21,000 1,900 Climbing FlightAware ADS-B
Fri 11:11:39 PM 40.1422 -74.3731 33° Northeast 465 535 21,900 1,837 Climbing FlightAware ADS-B
Fri 11:11:58 PM 40.1761 -74.3444 30° Northeast 467 537 22,500 1,773 Climbing FlightAware ADS-B
Fri 11:12:23 PM 40.2232 -74.3093 28° Northeast 468 539 23,200 1,745 Climbing FlightAware ADS-B
Fri 11:12:53 PM 40.2814 -74.2691 28° Northeast 472 543 24,100 1,600 Climbing FlightAware ADS-B
Fri 11:13:23 PM 40.3406 -74.2282 27° Northeast 480 552 24,800 871 Climbing FlightAware ADS-B
Fri 11:13:55 PM 40.4041 -74.1848 28° Northeast 496 571 25,000 190 Climbing FlightAware ADS-B
Fri 11:14:26 PM 40.4687 -74.1405 27° Northeast 488 562 25,000  Level FlightAware ADS-B
Fri 11:14:57 PM 40.5297 -74.0989 27° Northeast 493 567 25,000  Level FlightAware ADS-B
Fri 11:15:28 PM 40.5932 -74.0557 27° Northeast 492 566 25,000  Level FlightAware ADS-B
Fri 11:15:58 PM 40.6544 -74.0143 27° Northeast 492 566 25,000  Level FlightAware ADS-B
Fri 11:16:22 PM 40.7024 -73.9816 27° Northeast 492 566 25,000  Level FlightAware ADS-B
Fri 11:16:29 PM 40.7171 -73.9716 28° Northeast 492 566 25,000  Level FlightAware ADS-B
Fri 11:16:52 PM 40.7634 -73.9397 28° Northeast 490 564 25,000  Level FlightAware ADS-B
Fri 11:17:00 PM 40.7803 -73.9279 28° Northeast 489 563 25,000  Level FlightAware ADS-B
Fri 11:17:23 PM 40.8270 -73.8954 28° Northeast 486 559 25,000  Level FlightAware ADS-B
Fri 11:17:32 PM 40.8438 -73.8837 28° Northeast 485 558 25,000  Level FlightAware ADS-B
Fri 11:17:54 PM 40.8888 -73.8525 27° Northeast 482 555 25,000  Level FlightAware ADS-B
Fri 11:18:02 PM 40.9042 -73.8419 28° Northeast 481 554 25,000  Level FlightAware ADS-B
Fri 11:18:25 PM 40.9493 -73.8108 27° Northeast 479 551 25,000  Level FlightAware ADS-B
Fri 11:18:32 PM 40.9644 -73.8004 28° Northeast 479 551 25,000  Level FlightAware ADS-B
Fri 11:19:03 PM 41.0248 -73.7586 26° Northeast 478 550 25,000  Level FlightAware ADS-B
Fri 11:19:23 PM 41.0648 -73.7327 22° Northeast 475 547 25,000  Level FlightAware ADS-B
Fri 11:19:28 PM 41.0753 -73.7272 17° North 474 545 25,000  Level FlightAware ADS-B
Fri 11:19:44 PM 41.1087 -73.7134 10° North 473 544 25,000  Level FlightAware ADS-B
Fri 11:20:04 PM 41.1519 -73.7033 North 467 537 25,000  Level FlightAware ADS-B
Fri 11:20:35 PM 41.2173 -73.6990 North 461 531 25,000  Level FlightAware ADS-B
Fri 11:21:13 PM 41.2998 -73.6954 North 460 529 25,000  Level FlightAware ADS-B
Fri 11:21:44 PM 41.3661 -73.6924 North 461 531 25,000  Level FlightAware ADS-B
Fri 11:22:15 PM 41.4311 -73.6892 North 461 531 25,000  Level FlightAware ADS-B
Fri 11:22:45 PM 41.4962 -73.6859 North 462 532 25,000  Level FlightAware ADS-B
Fri 11:23:16 PM 41.5433 -73.6853 North 461 531 25,000  Level Boston Center
Fri 11:24:16 PM 41.6725 -73.6769 North 456 525 25,000  Level Boston Center
Fri 11:25:57 PM 41.9060 -73.6661 North 463 533 25,000  Level FlightAware ADS-B
Fri 11:27:06 PM 42.0555 -73.6584 North 464 534 25,000  Level FlightAware ADS-B
Fri 11:28:07 PM 42.1860 -73.6518 359° North 464 534 25,000  Level FlightAware ADS-B
Fri 11:29:02 PM 42.3028 -73.6550 356° North 460 529 25,000  Level FlightAware ADS-B
Fri 11:29:44 PM 42.3926 -73.6638 352° North 460 529 25,000  Level FlightAware ADS-B
Fri 11:30:16 PM 42.4583 -73.6756 356° North 458 527 25,000  Level Boston Center
Fri 11:31:16 PM 42.5853 -73.6864 354° North 458 527 25,000  Level Boston Center
Fri 11:32:16 PM 42.7144 -73.7033 355° North 463 533 25,000  Level Boston Center
Fri 11:33:16 PM 42.8414 -73.7172 356° North 463 533 25,000  Level Boston Center
Fri 11:34:16 PM 42.9683 -73.7283 355° North 458 527 25,000  Level Boston Center
Fri 11:35:16 PM 43.0953 -73.7422 355° North 458 527 25,000  Level Boston Center
Fri 11:36:16 PM 43.2222 -73.7564 355° North 458 527 25,000  Level Boston Center
Fri 11:37:16 PM 43.3492 -73.7706 355° North 458 527 25,000  Level Boston Center
Fri 11:38:16 PM 43.4617 -73.7844 355° North 458 527 25,000  Level Boston Center
Fri 11:39:16 PM 43.5886 -73.7989 356° North 458 527 25,000  Level Boston Center
Fri 11:40:45 PM 43.7822 -73.8172 355° North 450 518 25,000  Level FlightAware ADS-B
Fri 11:41:19 PM 43.8373 -73.8233 356° North 449 517 25,000  Level FlightAware ADS-B
Fri 11:41:49 PM 43.9094 -73.8311 356° North 448 516 25,000  Level FlightAware ADS-B
Fri 11:42:29 PM 43.9918 -73.8399 355° North 448 516 25,000  Level FlightAware ADS-B
Fri 11:43:04 PM 44.0639 -73.8478 355° North 448 516 25,000  Level FlightAware ADS-B
Fri 11:43:34 PM 44.1264 -73.8548 355° North 449 517 25,000  Level FlightAware ADS-B
Fri 11:44:14 PM 44.2043 -73.8635 355° North 448 516 25,000  Level FlightAware ADS-B
Fri 11:44:49 PM 44.2772 -73.8717 355° North 449 517 25,000  Level FlightAware ADS-B
Fri 11:45:19 PM 44.3399 -73.8788 355° North 449 517 25,000 -429 Level FlightAware ADS-B
Fri 11:45:59 PM 44.4208 -73.8883 355° North 446 513 24,500 -880 Descending FlightAware ADS-B
Fri 11:46:34 PM 44.4910 -73.8967 355° North 441 507 23,900 -975 Descending FlightAware ADS-B
Fri 11:47:19 PM 44.5858 -73.9090 350° North 431 496 23,200 -640 Descending FlightAware ADS-B
Fri 11:47:49 PM 44.6447 -73.9237 347° North 426 490 23,100 -185 Descending FlightAware ADS-B
Fri 11:48:24 PM 44.7100 -73.9454 346° North 425 489 23,000 -80 Descending FlightAware ADS-B
Fri 11:49:04 PM 44.7916 -73.9746 346° North 423 487 23,000  Level FlightAware ADS-B
Fri 11:49:34 PM 44.8502 -73.9957 347° North 424 488 23,000  Level FlightAware ADS-B
Fri 11:50:09 PM 44.9176 -74.0183 North 428 493 23,000 -225 Level FlightAware ADS-B
Fri 11:50:54 PM 45.0117 -74.0129 North 429 494 22,700 -2,175 Descending FlightAware ADS-B
Fri 11:51:29 PM 45.0811 -74.0031 North 427 491 20,100 -4,615 Descending FlightAware ADS-B
Fri 11:51:59 PM 45.1400 -73.9966 North 423 487 17,700 -4,200 Descending FlightAware ADS-B
Fri 11:52:39 PM 45.2156 -73.9886 North 403 464 15,200 -3,840 Descending FlightAware ADS-B
Fri 11:53:14 PM 45.2776 -73.9827 North 381 438 12,900 -3,138 Descending FlightAware ADS-B
Fri 11:53:44 PM 45.3303 -73.9771 North 348 400 11,800 -1,457 Descending FlightAware ADS-B
Fri 11:54:24 PM 45.3900 -73.9711 North 308 354 11,200 -800 Descending FlightAware ADS-B
Fri 11:54:59 PM 45.4380 -73.9666 North 291 335 10,800 -831 Descending FlightAware ADS-B
Fri 11:55:29 PM 45.4790 -73.9631 North 289 333 10,300 -982 Descending FlightAware ADS-B
Fri 11:55:54 PM 45.5125 -73.9610 North 283 326 9,900 -933 Descending FlightAware ADS-B
Fri 11:56:14 PM 45.5382 -73.9596 North 275 316 9,600 -1,029 Descending FlightAware ADS-B
Fri 11:56:29 PM 45.5578 -73.9569 25° Northeast 272 313 9,300 -1,600 Descending FlightAware ADS-B
Fri 11:56:44 PM 45.5739 -73.9462 37° Northeast 267 307 8,800 -1,800 Descending FlightAware ADS-B
Fri 11:56:59 PM 45.5885 -73.9306 39° Northeast 258 297 8,400 -2,133 Descending FlightAware ADS-B
Fri 11:57:29 PM 45.6166 -73.8983 40° Northeast 251 289 7,200 -2,667 Descending FlightAware ADS-B
Fri 11:57:44 PM 45.6302 -73.8821 40° Northeast 253 291 6,400 -2,914 Descending FlightAware ADS-B
Fri 11:58:04 PM 45.6488 -73.8600 40° Northeast 254 292 5,500 -2,533 Descending FlightAware ADS-B
Fri 11:58:29 PM 45.6704 -73.8340 40° Northeast 251 289 4,500 -1,950 Descending FlightAware ADS-B
Fri 11:58:44 PM 45.6838 -73.8177 40° Northeast 242 278 4,200 -857 Descending FlightAware ADS-B
Fri 11:59:04 PM 45.7000 -73.7979 41° Northeast 228 262 4,000 -600 Descending FlightAware ADS-B
Fri 11:59:24 PM 45.7165 -73.7775 41° Northeast 221 254 3,800 -750 Descending FlightAware ADS-B
Fri 11:59:44 PM 45.7302 -73.7606 41° Northeast 219 252 3,500 -533 Descending FlightAware ADS-B
Sat 12:00:09 AM 45.7505 -73.7351 37° Northeast 214 246 3,400 -150 Descending FlightAware ADS-B
Sat 12:00:24 AM 45.7610 -73.7238 11° North 205 236 3,400  Level FlightAware ADS-B
Sat 12:00:39 AM 45.7727 -73.7204 330° Northwest 187 215 3,400  Level FlightAware ADS-B
Sat 12:01:04 AM 45.7897 -73.7345 317° Northwest 172 198 3,400  Level FlightAware ADS-B
Sat 12:01:19 AM 45.7951 -73.7416 313° West 173 199 3,400  Level FlightAware ADS-B
Sat 12:01:44 AM 45.8112 -73.7666 281° West 169 194 3,400  Level FlightAware ADS-B
Sat 12:01:59 AM 45.8127 -73.7781 251° West 163 188 3,400  Level FlightAware ADS-B
Sat 12:02:24 AM 45.8046 -73.8115 246° West 144 166 3,400  Level FlightAware ADS-B
Sat 12:02:49 AM 45.7984 -73.8315 245° Southwest 124 143 3,400 -150 Level FlightAware ADS-B
Sat 12:03:04 AM 45.7949 -73.8421 235° Southwest 123 142 3,300 -480 Descending FlightAware ADS-B
Sat 12:03:14 AM 45.7921 -73.8478 225° Southwest 124 143 3,200 -686 Descending FlightAware ADS-B
Sat 12:03:39 AM 45.7814 -73.8631 226° Southwest 111 128 2,900 -600 Descending FlightAware ADS-B
Sat 12:03:54 AM 45.7760 -73.8710 225° Southwest 109 125 2,800 -514 Descending FlightAware ADS-B
Sat 12:04:14 AM 45.7688 -73.8813 225° Southwest 108 124 2,600 -533 Descending FlightAware ADS-B
Sat 12:04:39 AM 45.7602 -73.8936 225° Southwest 108 124 2,400 -533 Descending FlightAware ADS-B
Sat 12:04:59 AM 45.7531 -73.9038 225° Southwest 107 123 2,200 -514 Descending FlightAware ADS-B
Sat 12:05:14 AM 45.7478 -73.9113 225° Southwest 106 122 2,100 -533 Descending FlightAware ADS-B
Sat 12:05:44 AM 45.7376 -73.9259 225° Southwest 101 116 1,800 -533 Descending FlightAware ADS-B
Sat 12:05:59 AM 45.7324 -73.9334 226° Southwest 101 116 1,700 -450 Descending FlightAware ADS-B
Sat 12:06:24 AM 45.7245 -73.9450 225° Southwest 101 116 1,500 -577 Descending FlightAware ADS-B
Sat 12:06:51 AM 45.7142 -73.9595 225° Southwest 102 117 1,200 -638 Descending FlightAware ADS-B
Sat 12:07:11 AM 45.7073 -73.9694 225° Southwest 101 116 1,000 -450 Descending FlightAware ADS-B
Sat 12:07:31 AM 45.7017 -73.9773 225° Southwest 102 117 900 -300 Descending FlightAware ADS-B

Login

Don't have an account? Register now (free) for customized features, flight alerts, and more!